Pitman, Pennsylvania
Current Conditions -  °F | °C
As of 10:58 AM on Friday 24 Oct 2014 (Local Time) from KMUI Reporting Station
Clear Clear  
Wind Chill: 16°   Ceiling: Unl
Heat Index: 16°   Visibility: 10mi
Dew Point:   Wind: 10mph
Humidity: 51%   Direction: 320°NW
Pressure: 29.93"   Gusts: 21mph
Location:  40.71°N, 76.52°W
Report Text: KMUI 241458Z AUTO 32009G18KT 270V020 10SM CLR 16/06 A2993 RMK AO2 SLP137 T01640063 50005 $
Loading
Personal Weather Stations






























Interactive Weather Map
Tropical Storm Tracking
New forecast layout! Learn more

10-Day Weather Forecast

Advertisements
Track Severe Weather on mobile